createdAt,value
2022-08-19T00:00:57.985Z,13.30
2022-08-19T00:03:26.641Z,13.50
2022-08-19T00:05:55.314Z,13.60
2022-08-19T00:08:24.154Z,13.10
2022-08-19T00:10:53.952Z,13.50
2022-08-19T00:13:22.887Z,14.00
2022-08-19T00:15:51.515Z,13.90
2022-08-19T00:18:20.185Z,13.80
2022-08-19T00:20:49.677Z,13.80
2022-08-19T00:23:18.529Z,13.50
2022-08-19T00:25:48.769Z,13.00
2022-08-19T00:28:18.097Z,14.90
2022-08-19T00:30:46.717Z,14.20
2022-08-19T00:33:15.329Z,15.00
2022-08-19T00:35:43.975Z,14.50
2022-08-19T00:38:12.669Z,13.60
2022-08-19T00:40:47.733Z,14.90
2022-08-19T00:43:22.231Z,13.60
2022-08-19T00:45:53.003Z,14.00
2022-08-19T00:48:23.504Z,13.90
2022-08-19T00:50:54.422Z,13.00
2022-08-19T00:53:27.554Z,14.00
2022-08-19T00:56:00.609Z,13.60
2022-08-19T00:58:34.803Z,14.30
2022-08-19T01:01:06.152Z,14.10
2022-08-19T01:03:56.892Z,13.90
2022-08-19T01:06:23.700Z,13.40
2022-08-19T01:08:52.977Z,13.50
2022-08-19T01:11:22.455Z,13.30
2022-08-19T01:13:53.499Z,14.30
2022-08-19T01:16:26.332Z,13.50
2022-08-19T01:21:34.902Z,14.60
2022-08-19T01:24:03.955Z,13.80
2022-08-19T01:26:32.773Z,14.40
2022-08-19T01:29:02.327Z,13.90
2022-08-19T01:31:33.938Z,14.90
2022-08-19T01:34:03.818Z,13.60
2022-08-19T01:36:40.504Z,13.80
2022-08-19T01:39:24.521Z,13.80
2022-08-19T01:41:55.600Z,14.30
2022-08-19T01:44:25.295Z,14.00
2022-08-19T01:46:54.548Z,13.80
2022-08-19T01:49:27.665Z,14.30
2022-08-19T01:51:56.510Z,13.70
2022-08-19T01:54:27.939Z,14.10
2022-08-19T01:57:12.561Z,13.90
2022-08-19T01:59:45.929Z,13.50
2022-08-19T02:02:15.250Z,13.30
2022-08-19T02:04:43.886Z,14.00
2022-08-19T02:07:13.115Z,13.70
2022-08-19T02:09:41.786Z,13.20
2022-08-19T02:12:10.858Z,13.50
2022-08-19T02:14:39.537Z,13.80
2022-08-19T02:17:08.215Z,14.10
2022-08-19T02:19:38.982Z,15.40
2022-08-19T02:22:09.832Z,15.00
2022-08-19T02:24:39.456Z,14.20
2022-08-19T02:27:08.475Z,15.50
2022-08-19T02:29:37.125Z,14.90
2022-08-19T02:32:24.585Z,17.10
2022-08-19T02:34:53.277Z,16.20
2022-08-19T02:37:40.139Z,16.00
2022-08-19T02:40:12.314Z,15.10
2022-08-19T02:45:11.321Z,16.00
2022-08-19T02:47:40.312Z,15.20
2022-08-19T02:50:09.680Z,14.30
2022-08-19T02:52:38.756Z,14.20
2022-08-19T02:55:08.817Z,14.00
2022-08-19T02:57:37.675Z,14.40
2022-08-19T03:00:13.680Z,15.60
2022-08-19T03:02:42.658Z,14.70
2022-08-19T03:05:11.876Z,15.70
2022-08-19T03:07:40.565Z,15.50
2022-08-19T03:10:09.723Z,15.30
2022-08-19T03:12:41.159Z,14.30
2022-08-19T03:15:10.587Z,15.20
2022-08-19T03:17:39.249Z,14.70
2022-08-19T03:20:09.288Z,18.50
2022-08-19T03:22:37.947Z,15.60
2022-08-19T03:25:07.082Z,15.10
2022-08-19T03:27:36.185Z,15.90
2022-08-19T03:30:05.684Z,15.00
2022-08-19T03:32:35.704Z,27.00
2022-08-19T03:35:14.113Z,17.20
2022-08-19T03:37:42.749Z,14.50
2022-08-19T03:40:16.409Z,15.60
2022-08-19T03:42:49.544Z,15.70
2022-08-19T03:45:19.362Z,15.70
2022-08-19T03:47:48.078Z,15.80
2022-08-19T03:50:34.119Z,15.90
2022-08-19T03:53:02.771Z,15.90
2022-08-19T03:55:31.651Z,15.70
2022-08-19T03:58:00.297Z,16.50
2022-08-19T04:00:28.989Z,18.00
2022-08-19T04:02:59.999Z,17.50
2022-08-19T04:05:30.867Z,17.50
2022-08-19T04:08:00.429Z,16.80
2022-08-19T04:10:30.022Z,17.10
2022-08-19T04:12:59.106Z,17.60
2022-08-19T04:15:30.137Z,18.10
2022-08-19T04:17:58.738Z,18.10
2022-08-19T04:20:27.354Z,17.70
2022-08-19T04:22:58.114Z,19.50
2022-08-19T04:25:26.785Z,18.00
2022-08-19T04:27:55.386Z,18.40
2022-08-19T04:30:24.079Z,19.00
2022-08-19T04:32:52.908Z,18.30
2022-08-19T04:35:25.030Z,18.10
2022-08-19T04:37:53.847Z,17.80
2022-08-19T04:40:41.449Z,19.90
2022-08-19T04:43:10.495Z,18.70
2022-08-19T04:45:43.437Z,18.70
2022-08-19T04:48:26.748Z,18.50
2022-08-19T04:50:59.293Z,18.50
2022-08-19T04:53:37.745Z,18.00
2022-08-19T04:56:14.635Z,17.30
2022-08-19T04:58:46.251Z,17.50
2022-08-19T05:01:20.622Z,17.00
2022-08-19T05:03:50.519Z,16.80
2022-08-19T05:06:21.901Z,17.30
2022-08-19T05:08:51.538Z,16.10
2022-08-19T05:11:40.312Z,16.70
2022-08-19T05:14:10.591Z,16.10
2022-08-19T05:16:40.153Z,16.40
2022-08-19T05:19:27.359Z,16.40
2022-08-19T05:22:14.763Z,16.60
2022-08-19T05:25:02.515Z,15.40
2022-08-19T05:27:33.618Z,17.80
2022-08-19T05:30:03.002Z,16.40
2022-08-19T05:32:32.018Z,17.30
2022-08-19T05:35:00.756Z,16.10
2022-08-19T05:37:29.774Z,14.80
2022-08-19T05:39:58.562Z,16.10
2022-08-19T05:42:27.899Z,16.20
2022-08-19T05:44:57.233Z,14.70
2022-08-19T05:47:25.883Z,13.50
2022-08-19T05:49:54.539Z,12.80
2022-08-19T05:52:26.127Z,12.30
2022-08-19T05:54:57.062Z,12.50
2022-08-19T05:57:25.987Z,13.20
2022-08-19T05:59:58.005Z,13.40
2022-08-19T06:02:31.991Z,12.20
2022-08-19T06:05:00.740Z,10.70
2022-08-19T06:07:30.374Z,11.40
2022-08-19T06:10:00.962Z,11.90
2022-08-19T06:12:34.201Z,10.20
2022-08-19T06:15:14.673Z,10.90
2022-08-19T06:17:45.766Z,10.90
2022-08-19T06:20:16.359Z,10.40
2022-08-19T06:22:53.187Z,11.70
2022-08-19T06:25:22.067Z,11.00
2022-08-19T06:28:14.083Z,10.30
2022-08-19T06:30:39.363Z,11.60
2022-08-19T06:33:08.036Z,11.50
2022-08-19T06:35:42.036Z,10.40
2022-08-19T06:38:11.187Z,10.70
2022-08-19T06:40:39.969Z,10.90
2022-08-19T06:43:09.449Z,11.00
2022-08-19T06:45:39.950Z,10.60
2022-08-19T06:48:08.633Z,10.00
2022-08-19T06:50:39.752Z,9.80
2022-08-19T06:53:09.746Z,9.70
2022-08-19T06:55:38.732Z,9.90
2022-08-19T06:58:07.561Z,9.80
2022-08-19T07:00:36.652Z,9.80
2022-08-19T07:03:08.610Z,9.40
2022-08-19T07:05:45.618Z,10.20
2022-08-19T07:08:15.595Z,9.50
2022-08-19T07:10:46.640Z,10.40
2022-08-19T07:13:15.502Z,9.30
2022-08-19T07:15:44.191Z,10.50
2022-08-19T07:18:12.821Z,10.40
2022-08-19T07:20:42.163Z,9.70
2022-08-19T07:23:15.852Z,9.70
2022-08-19T07:25:52.475Z,10.90
2022-08-19T07:28:24.117Z,10.10
2022-08-19T07:30:54.168Z,9.80
2022-08-19T07:33:24.329Z,10.10
2022-08-19T07:38:26.122Z,10.20
2022-08-19T07:40:55.936Z,9.60
2022-08-19T07:43:35.201Z,8.80
2022-08-19T07:46:04.262Z,9.20
2022-08-19T07:48:33.794Z,8.80
2022-08-19T07:51:05.893Z,8.90
2022-08-19T07:53:37.909Z,8.70
2022-08-19T07:56:09.013Z,9.20
2022-08-19T07:58:41.442Z,8.30
2022-08-19T08:06:49.153Z,7.80
2022-08-19T08:09:23.412Z,8.90
2022-08-19T08:12:17.980Z,8.00
2022-08-19T08:14:57.228Z,8.80
2022-08-19T08:17:30.781Z,7.50
2022-08-19T08:20:17.950Z,8.10
2022-08-19T08:23:06.802Z,7.50
2022-08-19T08:25:37.772Z,7.60
2022-08-19T08:28:08.711Z,7.50
2022-08-19T08:30:45.312Z,7.60
2022-08-19T08:35:49.325Z,6.80
2022-08-19T08:38:18.995Z,7.00
2022-08-19T08:41:07.391Z,7.40
2022-08-19T08:43:56.564Z,7.70
2022-08-19T08:46:39.288Z,6.80
2022-08-19T08:49:16.837Z,7.00
2022-08-19T08:52:01.825Z,6.80
2022-08-19T08:54:54.880Z,6.60
2022-08-19T08:57:51.866Z,5.20
2022-08-19T09:00:35.846Z,5.20
2022-08-19T09:03:11.057Z,5.00
2022-08-19T09:06:30.734Z,5.40
2022-08-19T09:09:12.234Z,5.60
2022-08-19T09:12:16.396Z,5.40
2022-08-19T09:14:57.086Z,5.90
2022-08-19T09:17:34.616Z,5.10
2022-08-19T09:20:15.236Z,5.00
2022-08-19T09:22:47.749Z,4.60
2022-08-19T09:25:26.859Z,5.20
2022-08-19T09:28:02.327Z,5.60
2022-08-19T09:30:40.931Z,4.80
2022-08-19T09:33:10.072Z,4.80
2022-08-19T09:35:53.057Z,4.60
2022-08-19T09:38:22.938Z,4.60
2022-08-19T09:40:51.599Z,4.60
2022-08-19T09:43:32.928Z,4.20
2022-08-19T09:46:06.538Z,4.80
2022-08-19T09:48:36.319Z,4.60
2022-08-19T09:51:18.080Z,3.80
2022-08-19T09:53:52.943Z,4.30
2022-08-19T09:56:23.810Z,4.50
2022-08-19T09:58:53.308Z,4.50
2022-08-19T10:01:27.157Z,4.60
2022-08-19T10:04:00.255Z,4.60
2022-08-19T10:06:44.071Z,4.30
2022-08-19T10:09:33.848Z,4.80
2022-08-19T10:12:23.785Z,4.40
2022-08-19T10:14:55.513Z,4.90
2022-08-19T10:17:27.504Z,4.40
2022-08-19T10:20:01.125Z,4.10
2022-08-19T10:22:30.187Z,3.70
2022-08-19T10:25:00.134Z,4.70
2022-08-19T10:27:28.935Z,4.60
2022-08-19T10:32:34.040Z,4.70
2022-08-19T10:35:09.253Z,4.80
2022-08-19T10:37:47.793Z,4.20
2022-08-19T10:40:28.689Z,4.20
2022-08-19T10:42:57.553Z,3.80
2022-08-19T10:45:28.335Z,4.00
2022-08-19T10:47:57.468Z,3.80
2022-08-19T10:51:26.297Z,3.90
2022-08-19T10:53:57.555Z,3.30
2022-08-19T10:56:45.560Z,4.00
2022-08-19T10:59:15.643Z,3.50
2022-08-19T11:01:46.830Z,3.50
2022-08-19T11:04:18.797Z,3.50
2022-08-19T11:06:50.461Z,3.40
2022-08-19T11:09:33.321Z,3.50
2022-08-19T11:12:04.961Z,3.50
2022-08-19T11:14:35.113Z,3.30
2022-08-19T11:17:06.495Z,3.60
2022-08-19T11:19:36.726Z,3.70
2022-08-19T11:22:10.664Z,3.60
2022-08-19T11:24:44.819Z,3.20
2022-08-19T11:27:13.427Z,3.50
2022-08-19T11:29:42.172Z,3.70
2022-08-19T11:32:12.069Z,3.50
2022-08-19T11:34:40.969Z,3.40
2022-08-19T11:37:10.173Z,3.30
2022-08-19T11:39:39.559Z,3.60
2022-08-19T11:42:27.331Z,3.40
2022-08-19T11:44:56.925Z,3.40
2022-08-19T11:47:25.569Z,3.60
2022-08-19T11:49:54.601Z,3.00
2022-08-19T11:52:23.298Z,2.90
2022-08-19T11:54:52.023Z,3.00
2022-08-19T11:57:21.065Z,2.90
2022-08-19T11:59:52.788Z,2.80
2022-08-19T12:04:51.437Z,4.10
2022-08-19T12:07:20.100Z,3.10
2022-08-19T12:09:48.874Z,3.20
2022-08-19T12:12:17.776Z,2.80
2022-08-19T12:14:47.751Z,2.80
2022-08-19T12:17:16.515Z,3.00
2022-08-19T12:19:45.712Z,2.80
2022-08-19T12:22:14.357Z,3.20
2022-08-19T12:24:43.035Z,3.00
2022-08-19T12:27:12.911Z,3.00
2022-08-19T12:29:42.913Z,2.70
2022-08-19T12:32:12.240Z,2.60
2022-08-19T12:34:41.169Z,2.60
2022-08-19T12:37:10.705Z,2.90
2022-08-19T12:39:43.207Z,2.70
2022-08-19T12:42:15.635Z,3.20
2022-08-19T12:44:45.202Z,2.50
2022-08-19T12:47:19.594Z,2.80
2022-08-19T12:49:54.325Z,2.80
2022-08-19T12:52:28.331Z,2.60
2022-08-19T12:54:58.630Z,2.80
2022-08-19T12:57:33.015Z,2.60
2022-08-19T13:00:13.647Z,2.70
2022-08-19T13:02:46.640Z,3.00
2022-08-19T13:05:26.483Z,2.70
2022-08-19T13:07:57.771Z,2.70
2022-08-19T13:10:36.051Z,3.00
2022-08-19T13:13:09.874Z,2.80
2022-08-19T13:18:33.179Z,3.20
2022-08-19T13:21:07.909Z,3.10
2022-08-19T13:23:37.179Z,2.70
2022-08-19T13:26:08.451Z,2.70
2022-08-19T13:28:55.853Z,3.00
2022-08-19T13:31:46.136Z,2.40
2022-08-19T13:34:16.476Z,2.70
2022-08-19T13:36:45.258Z,2.90
2022-08-19T13:39:14.307Z,2.80
2022-08-19T13:41:49.201Z,2.90
2022-08-19T13:44:22.131Z,3.40
2022-08-19T13:46:54.113Z,2.70
2022-08-19T13:49:24.474Z,2.80
2022-08-19T13:51:53.081Z,3.00
2022-08-19T13:54:21.789Z,2.70
2022-08-19T13:56:50.470Z,2.80
2022-08-19T13:59:19.091Z,2.50
2022-08-19T14:01:47.815Z,3.00
2022-08-19T14:04:17.741Z,3.00
2022-08-19T14:06:46.407Z,3.00
2022-08-19T14:09:15.022Z,3.10
2022-08-19T14:11:43.676Z,2.80
2022-08-19T14:14:16.317Z,3.00
2022-08-19T14:16:46.963Z,3.20
2022-08-19T14:19:15.945Z,2.70
2022-08-19T14:21:44.707Z,2.80
2022-08-19T14:24:13.364Z,2.70
2022-08-19T14:26:42.030Z,2.60
2022-08-19T14:29:10.931Z,3.00
2022-08-19T14:31:43.833Z,2.40
2022-08-19T14:34:13.977Z,2.30
2022-08-19T14:36:43.006Z,2.60
2022-08-19T14:39:12.838Z,2.70
2022-08-19T14:41:43.528Z,2.30
2022-08-19T14:44:13.737Z,2.40
2022-08-19T14:46:49.308Z,2.70
2022-08-19T14:49:19.196Z,2.70
2022-08-19T14:51:48.199Z,2.80
2022-08-19T14:54:16.827Z,2.60
2022-08-19T14:56:46.182Z,2.60
2022-08-19T14:59:15.781Z,2.90
2022-08-19T15:01:45.037Z,2.50
2022-08-19T15:04:13.970Z,2.90
2022-08-19T15:06:43.596Z,2.60
2022-08-19T15:09:12.490Z,2.80
2022-08-19T15:11:54.207Z,2.60
2022-08-19T15:14:25.320Z,2.80
2022-08-19T15:16:55.947Z,2.60
2022-08-19T15:19:25.169Z,2.80
2022-08-19T15:21:55.557Z,2.90
2022-08-19T15:24:26.448Z,2.60
2022-08-19T15:29:25.711Z,2.70
2022-08-19T15:31:56.747Z,2.60
2022-08-19T15:34:27.522Z,2.50
2022-08-19T15:36:56.137Z,2.80
2022-08-19T15:39:24.816Z,2.80
2022-08-19T15:41:53.592Z,2.90
2022-08-19T15:44:22.527Z,3.50
2022-08-19T15:46:53.137Z,2.70
2022-08-19T15:49:22.137Z,2.90
2022-08-19T15:51:53.207Z,2.80
2022-08-19T15:54:22.749Z,2.60
2022-08-19T15:57:10.868Z,2.50
2022-08-19T16:00:03.067Z,2.60
2022-08-19T16:02:53.705Z,3.00
2022-08-19T16:05:45.550Z,2.80
2022-08-19T16:08:15.654Z,2.40
2022-08-19T16:10:44.350Z,2.50
2022-08-19T16:13:12.948Z,3.10
2022-08-19T16:15:44.898Z,3.20
2022-08-19T16:18:13.490Z,2.60
2022-08-19T16:20:42.287Z,2.60
2022-08-19T16:23:11.343Z,2.80
2022-08-19T16:25:40.009Z,3.00
2022-08-19T16:28:10.006Z,2.50
2022-08-19T16:30:40.820Z,2.60
2022-08-19T16:33:11.913Z,3.00
2022-08-19T16:36:00.036Z,3.30
2022-08-19T16:38:37.752Z,3.00
2022-08-19T16:41:07.539Z,2.90
2022-08-19T16:43:36.605Z,3.00
2022-08-19T16:46:05.384Z,4.60
2022-08-19T16:48:33.995Z,3.10
2022-08-19T16:51:07.840Z,3.40
2022-08-19T16:53:38.413Z,3.60
2022-08-19T16:56:09.867Z,3.10
2022-08-19T16:58:39.015Z,3.60
2022-08-19T17:01:10.990Z,3.30
2022-08-19T17:06:20.393Z,3.70
2022-08-19T17:08:52.647Z,3.40
2022-08-19T17:11:24.576Z,3.40
2022-08-19T17:13:55.566Z,3.60
2022-08-19T17:16:28.207Z,4.00
2022-08-19T17:19:01.003Z,4.90
2022-08-19T17:21:33.352Z,7.30
2022-08-19T17:24:06.340Z,4.60
2022-08-19T17:26:35.776Z,4.90
2022-08-19T17:29:06.324Z,6.20
2022-08-19T17:31:35.437Z,4.20
2022-08-19T17:34:04.789Z,4.00
2022-08-19T17:36:34.336Z,5.10
2022-08-19T17:39:05.404Z,4.10
2022-08-19T17:41:35.229Z,5.40
2022-08-19T17:44:04.716Z,4.90
2022-08-19T17:46:52.222Z,5.30
2022-08-19T17:49:21.041Z,4.40
2022-08-19T17:51:50.265Z,4.50
2022-08-19T17:54:20.362Z,5.00
2022-08-19T17:56:49.105Z,4.20
2022-08-19T17:59:17.848Z,5.00
2022-08-19T18:01:53.705Z,5.40
2022-08-19T18:04:26.422Z,5.00
2022-08-19T18:06:55.887Z,4.60
2022-08-19T18:09:38.722Z,4.60
2022-08-19T18:12:15.807Z,4.80
2022-08-19T18:14:44.515Z,4.60
2022-08-19T18:17:18.195Z,4.70
2022-08-19T18:19:47.983Z,4.20
2022-08-19T18:22:36.653Z,4.50
2022-08-19T18:25:10.574Z,5.10
2022-08-19T18:27:40.072Z,5.80
2022-08-19T18:30:10.712Z,4.20
2022-08-19T18:32:42.435Z,5.20
2022-08-19T18:35:18.500Z,4.50
2022-08-19T18:37:47.738Z,4.80
2022-08-19T18:40:39.075Z,5.10
2022-08-19T18:43:17.100Z,5.00
2022-08-19T18:46:04.506Z,4.60
2022-08-19T18:48:57.169Z,5.30
2022-08-19T18:51:30.254Z,4.80
2022-08-19T18:54:00.113Z,5.70
2022-08-19T18:56:32.602Z,5.20
2022-08-19T18:59:02.437Z,7.70
2022-08-19T19:01:52.487Z,8.30
2022-08-19T19:04:24.520Z,4.70
2022-08-19T19:06:53.995Z,6.40
2022-08-19T19:09:25.281Z,6.80
2022-08-19T19:11:58.277Z,6.20
2022-08-19T19:14:49.033Z,5.40
2022-08-19T19:17:18.417Z,5.00
2022-08-19T19:19:47.045Z,5.80
2022-08-19T19:22:21.321Z,6.00
2022-08-19T19:24:51.827Z,5.80
2022-08-19T19:27:21.976Z,7.50
2022-08-19T19:29:52.494Z,5.90
2022-08-19T19:32:29.665Z,5.80
2022-08-19T19:34:59.910Z,7.30
2022-08-19T19:37:28.666Z,5.80
2022-08-19T19:39:57.571Z,5.90
2022-08-19T19:42:26.319Z,5.40
2022-08-19T19:44:56.865Z,10.10
2022-08-19T19:47:26.090Z,6.80
2022-08-19T19:50:14.836Z,5.90
2022-08-19T19:52:47.165Z,6.00
2022-08-19T19:55:20.162Z,6.20
2022-08-19T19:57:49.761Z,6.00
2022-08-19T20:00:19.263Z,6.40
2022-08-19T20:02:50.894Z,7.30
2022-08-19T20:05:22.069Z,7.70
2022-08-19T20:08:12.288Z,13.50
2022-08-19T20:10:43.726Z,13.70
2022-08-19T20:13:15.711Z,11.80
2022-08-19T20:15:44.928Z,10.90
2022-08-19T20:18:14.921Z,11.10
2022-08-19T20:20:46.568Z,9.40
2022-08-19T20:23:15.422Z,9.20
2022-08-19T20:25:44.314Z,9.60
2022-08-19T20:28:12.972Z,6.70
2022-08-19T20:30:46.235Z,6.50
2022-08-19T20:33:15.338Z,6.00
2022-08-19T20:35:45.595Z,5.60
2022-08-19T20:38:14.332Z,6.10
2022-08-19T20:40:43.068Z,5.80
2022-08-19T20:43:13.671Z,5.70
2022-08-19T20:45:42.608Z,5.80
2022-08-19T20:48:12.651Z,5.60
2022-08-19T20:50:41.614Z,5.20
2022-08-19T20:53:18.207Z,5.60
2022-08-19T20:55:52.104Z,5.50
2022-08-19T20:58:22.960Z,5.10
2022-08-19T21:00:55.737Z,6.40
2022-08-19T21:03:28.143Z,5.90
2022-08-19T21:05:58.005Z,6.30
2022-08-19T21:08:28.155Z,6.10
2022-08-19T21:10:58.286Z,5.70
2022-08-19T21:13:27.150Z,5.90
2022-08-19T21:15:56.418Z,6.20
2022-08-19T21:18:27.096Z,5.50
2022-08-19T21:20:56.466Z,5.50
2022-08-19T21:23:28.647Z,6.20
2022-08-19T21:26:00.034Z,6.10
2022-08-19T21:28:36.241Z,6.30
2022-08-19T21:31:10.619Z,5.80
2022-08-19T21:33:39.333Z,6.70
2022-08-19T21:36:09.070Z,6.20
2022-08-19T21:38:38.518Z,5.60
2022-08-19T21:41:08.067Z,5.90
2022-08-19T21:43:38.509Z,6.40
2022-08-19T21:46:09.334Z,6.20
2022-08-19T21:48:38.349Z,6.00
2022-08-19T21:51:08.052Z,6.40
2022-08-19T21:53:37.417Z,6.10
2022-08-19T21:56:07.922Z,5.90
2022-08-19T21:58:39.678Z,6.20
2022-08-19T22:01:09.102Z,5.90
2022-08-19T22:03:39.180Z,6.60
2022-08-19T22:06:09.703Z,5.90
2022-08-19T22:08:39.191Z,6.40
2022-08-19T22:11:08.099Z,6.40
2022-08-19T22:13:41.389Z,6.00
2022-08-19T22:16:10.662Z,6.40
2022-08-19T22:18:39.479Z,5.90
2022-08-19T22:21:11.981Z,6.50
2022-08-19T22:23:45.216Z,6.50
2022-08-19T22:26:16.743Z,6.30
2022-08-19T22:28:45.996Z,6.30
2022-08-19T22:31:16.540Z,6.50
2022-08-19T22:33:45.623Z,6.50
2022-08-19T22:36:14.842Z,6.40
2022-08-19T22:38:44.123Z,6.50
2022-08-19T22:41:12.962Z,6.70
2022-08-19T22:43:41.807Z,6.80
2022-08-19T22:46:17.412Z,6.40
2022-08-19T22:48:48.164Z,6.90
2022-08-19T22:51:48.427Z,6.70
2022-08-19T22:54:17.511Z,6.30
2022-08-19T22:56:46.298Z,7.00
2022-08-19T22:59:15.091Z,6.50
2022-08-19T23:01:43.974Z,6.20
2022-08-19T23:04:13.309Z,6.80
2022-08-19T23:06:42.494Z,6.80
2022-08-19T23:09:16.874Z,6.80
2022-08-19T23:11:47.445Z,6.80
2022-08-19T23:14:19.174Z,7.20
2022-08-19T23:16:51.292Z,6.60
2022-08-19T23:19:21.778Z,7.00
2022-08-19T23:21:50.603Z,6.90
2022-08-19T23:24:19.872Z,7.10
2022-08-19T23:27:07.202Z,7.10
2022-08-19T23:29:55.244Z,7.20
2022-08-19T23:32:25.880Z,6.70
2022-08-19T23:34:56.755Z,6.90
2022-08-19T23:37:25.910Z,7.10
2022-08-19T23:39:54.631Z,6.80
2022-08-19T23:42:26.351Z,7.00
2022-08-19T23:45:02.074Z,7.50
2022-08-19T23:47:36.380Z,7.00
2022-08-19T23:50:10.443Z,6.60
2022-08-19T23:52:51.211Z,7.90
2022-08-19T23:55:24.306Z,6.90
2022-08-19T23:57:53.677Z,7.40
